Time;durP1;ratioP1;P1;durP2;ratioP2;P2;SDS_P1;SDS_P2;PMS_P1;PMS_P2;Temp;Humidity;BMP_temperature;BMP_pressure;BME280_temperature;BME280_humidity;BME280_pressure;Samples;Min_cycle;Max_cycle;Signal;HPM_P1;HPM_P2
2021/12/09 00:00:01;;;;;;;10.25;4.90;;;;;;;2.52;86.98;100158.94;5094940;28;20132;-63
2021/12/09 00:02:29;;;;;;;12.43;5.13;;;;;;;2.50;86.80;100158.03;5094657;28;20028;-63
2021/12/09 00:04:58;;;;;;;9.98;5.07;;;;;;;2.46;86.93;100154.41;5076411;28;20430;-63
2021/12/09 00:07:24;;;;;;;10.38;5.20;;;;;;;2.47;86.91;100166.63;5094573;28;20028;-64
2021/12/09 00:09:50;;;;;;;10.30;4.70;;;;;;;2.46;86.83;100164.84;5094374;28;20140;-63
2021/12/09 00:12:17;;;;;;;8.68;4.80;;;;;;;2.45;87.21;100167.41;5094671;28;20108;-63
2021/12/09 00:14:42;;;;;;;14.88;5.80;;;;;;;2.44;86.91;100157.81;5094321;28;20032;-63
2021/12/09 00:17:08;;;;;;;11.48;5.30;;;;;;;2.44;86.79;100161.31;5094457;28;20020;-63
2021/12/09 00:19:35;;;;;;;14.07;5.15;;;;;;;2.44;87.14;100155.19;5094289;28;20028;-63
2021/12/09 00:22:04;;;;;;;12.63;4.97;;;;;;;2.43;87.03;100153.44;5094534;28;20480;-63
2021/12/09 00:24:30;;;;;;;14.75;5.05;;;;;;;2.43;87.15;100166.47;5094527;28;20028;-63
2021/12/09 00:26:56;;;;;;;11.65;5.57;;;;;;;2.43;86.89;100163.88;5093816;28;20085;-63
2021/12/09 00:29:22;;;;;;;8.90;4.80;;;;;;;2.41;86.97;100160.34;5094233;28;20024;-63
2021/12/09 00:31:48;;;;;;;11.63;5.10;;;;;;;2.42;86.95;100159.50;5093922;28;20039;-63
2021/12/09 00:34:13;;;;;;;10.40;4.95;;;;;;;2.40;87.11;100159.47;5093787;28;20020;-63
2021/12/09 00:36:43;;;;;;;15.82;5.57;;;;;;;2.41;87.20;100152.50;5094222;28;20035;-63
2021/12/09 00:39:10;;;;;;;18.35;5.60;;;;;;;2.37;87.30;100159.34;5093880;28;20107;-63
2021/12/09 00:41:36;;;;;;;10.90;5.07;;;;;;;2.34;87.53;100156.63;5094093;28;20099;-63
2021/12/09 00:44:02;;;;;;;19.58;5.20;;;;;;;2.32;87.22;100154.81;5093952;28;20577;-63
2021/12/09 00:46:27;;;;;;;11.88;5.60;;;;;;;2.31;87.80;100159.13;5093857;28;20031;-63
2021/12/09 00:48:53;;;;;;;9.32;4.68;;;;;;;2.29;87.66;100165.16;5094114;28;20110;-63
2021/12/09 00:51:18;;;;;;;10.65;4.95;;;;;;;2.28;87.67;100161.66;5093886;28;20030;-63
2021/12/09 00:53:44;;;;;;;12.85;5.47;;;;;;;2.31;87.38;100166.06;5093592;28;20046;-63
2021/12/09 00:56:11;;;;;;;10.82;5.03;;;;;;;2.31;87.22;100174.75;5093145;28;20503;-63
2021/12/09 00:58:38;;;;;;;9.38;4.63;;;;;;;2.28;87.94;100158.16;5093762;28;20028;-63
2021/12/09 01:01:06;;;;;;;13.65;5.05;;;;;;;2.27;87.42;100159.91;5093793;28;20028;-63
2021/12/09 01:03:33;;;;;;;10.93;5.07;;;;;;;2.24;87.73;100167.59;5093629;28;20035;-63
2021/12/09 01:05:59;;;;;;;12.07;5.15;;;;;;;2.23;87.67;100164.13;5093698;28;20512;-63
2021/12/09 01:08:24;;;;;;;12.38;5.03;;;;;;;2.23;87.69;100173.66;5093327;28;20042;-63
2021/12/09 01:10:50;;;;;;;14.55;5.13;;;;;;;2.21;87.89;100168.38;5093666;28;20376;-63
2021/12/09 01:13:16;;;;;;;10.35;4.55;;;;;;;2.21;87.89;100173.59;5093531;28;20519;-63
2021/12/09 01:15:41;;;;;;;9.45;4.60;;;;;;;2.22;87.83;100171.84;5093472;28;20157;-63
2021/12/09 01:18:07;;;;;;;9.38;4.25;;;;;;;2.23;87.80;100177.16;5093567;28;20056;-63
2021/12/09 01:20:32;;;;;;;10.98;4.50;;;;;;;2.20;88.05;100174.44;5093340;28;20136;-63
2021/12/09 01:22:58;;;;;;;11.10;4.85;;;;;;;2.21;87.72;100177.91;5093349;28;20016;-63
2021/12/09 01:25:26;;;;;;;15.27;5.30;;;;;;;2.28;87.35;100185.13;5093382;28;20556;-63
2021/12/09 01:27:54;;;;;;;9.43;4.40;;;;;;;2.19;88.09;100184.81;5093141;28;20056;-63
2021/12/09 01:30:21;;;;;;;11.05;4.65;;;;;;;2.18;88.34;100183.91;5093383;28;20031;-63
2021/12/09 01:32:52;;;;;;;14.45;4.88;;;;;;;2.19;87.89;100182.22;5075165;28;20119;-63
2021/12/09 01:35:21;;;;;;;9.45;4.70;;;;;;;2.16;87.75;100185.59;5093343;28;20111;-63
2021/12/09 01:37:48;;;;;;;10.60;5.10;;;;;;;2.14;87.88;100183.75;5093073;28;20027;-63
2021/12/09 01:40:14;;;;;;;12.20;5.15;;;;;;;2.15;87.83;100195.97;5093074;28;20536;-63
2021/12/09 01:42:40;;;;;;;11.48;4.78;;;;;;;2.17;88.01;100189.06;5093333;28;20059;-63
2021/12/09 01:45:06;;;;;;;14.40;5.38;;;;;;;2.14;88.31;100184.66;5093335;28;20103;-63
2021/12/09 01:47:32;;;;;;;10.50;4.82;;;;;;;2.13;87.96;100188.06;5092969;28;20027;-63
2021/12/09 01:49:58;;;;;;;13.40;4.45;;;;;;;2.11;88.10;100187.16;5093242;28;20491;-62
2021/12/09 01:52:23;;;;;;;9.75;4.47;;;;;;;2.09;87.96;100186.19;5092956;28;20028;-63
2021/12/09 01:54:49;;;;;;;11.13;4.80;;;;;;;2.08;88.39;100180.94;5093054;28;20036;-63
2021/12/09 01:57:14;;;;;;;9.65;4.85;;;;;;;2.06;88.34;100183.50;5093118;28;20039;-63
2021/12/09 01:59:40;;;;;;;12.68;4.95;;;;;;;2.03;88.17;100185.13;5093190;28;20115;-63
2021/12/09 02:02:05;;;;;;;10.65;4.90;;;;;;;2.01;88.28;100177.22;5093009;28;20542;-63
2021/12/09 02:04:31;;;;;;;13.27;5.05;;;;;;;2.00;88.48;100181.56;5092970;28;20020;-63
2021/12/09 02:06:57;;;;;;;11.55;4.80;;;;;;;2.01;88.31;100179.84;5092898;28;20056;-63
2021/12/09 02:09:22;;;;;;;9.88;4.47;;;;;;;1.98;88.20;100178.03;5096549;28;20428;-63
2021/12/09 02:11:48;;;;;;;14.20;5.40;;;;;;;1.97;88.50;100176.28;5097196;28;20484;-63
2021/12/09 02:14:13;;;;;;;13.90;5.28;;;;;;;1.94;88.55;100168.34;5097035;28;20024;-63
2021/12/09 02:16:40;;;;;;;12.82;5.20;;;;;;;1.90;88.69;100162.97;5097160;28;20161;-63
2021/12/09 02:19:07;;;;;;;13.68;4.72;;;;;;;1.92;88.78;100167.38;5096784;28;20028;-62
2021/12/09 02:21:34;;;;;;;8.85;5.00;;;;;;;1.92;88.50;100166.50;5096721;28;20114;-62
2021/12/09 02:24:04;;;;;;;8.85;4.15;;;;;;;1.92;88.14;100169.09;5096521;28;20400;-63
2021/12/09 02:26:34;;;;;;;12.80;4.90;;;;;;;1.91;88.64;100164.75;5096429;28;20028;-62
2021/12/09 02:29:01;;;;;;;12.73;5.20;;;;;;;1.91;88.19;100164.75;5096575;28;20492;-62
2021/12/09 02:31:28;;;;;;;14.65;4.95;;;;;;;1.87;88.59;100168.94;5096662;28;20381;-62
2021/12/09 02:34:07;;;;;;;13.18;5.13;;;;;;;1.85;88.85;100160.22;5096521;28;20083;-63
2021/12/09 02:36:37;;;;;;;16.50;5.40;;;;;;;1.86;88.39;100163.69;5096402;28;20028;-63
2021/12/09 02:39:05;;;;;;;12.55;4.97;;;;;;;1.82;88.92;100157.50;5096478;28;20500;-63
2021/12/09 02:41:33;;;;;;;13.85;5.75;;;;;;;1.81;88.33;100160.94;5096396;28;20024;-63
2021/12/09 02:44:03;;;;;;;15.00;5.32;;;;;;;1.82;88.47;100167.03;5096298;28;20495;-63
2021/12/09 02:46:36;;;;;;;17.48;5.45;;;;;;;1.83;89.16;100167.06;5096129;28;20105;-62
2021/12/09 02:49:14;;;;;;;16.55;5.50;;;;;;;1.80;88.94;100169.59;5096233;28;20032;-62
2021/12/09 02:51:41;;;;;;;13.55;5.13;;;;;;;1.79;88.88;100167.78;5096546;28;20095;-62
2021/12/09 02:54:10;;;;;;;14.07;4.80;;;;;;;1.77;89.11;100174.69;5096392;28;20028;-62
2021/12/09 02:56:36;;;;;;;9.95;4.65;;;;;;;1.79;89.04;100186.03;5096244;28;20103;-62
2021/12/09 02:59:03;;;;;;;10.75;4.18;;;;;;;1.81;88.87;100181.78;5095893;28;20103;-63
2021/12/09 03:01:33;;;;;;;11.05;5.00;;;;;;;1.80;89.20;100173.88;5096032;28;20028;-62
2021/12/09 03:04:02;;;;;;;11.82;4.90;;;;;;;1.80;89.06;100174.81;5095823;28;20554;-62
2021/12/09 03:06:36;;;;;;;14.25;4.68;;;;;;;1.79;88.69;100182.53;5096084;28;20056;-63
2021/12/09 03:09:10;;;;;;;23.48;5.07;;;;;;;1.79;88.80;100196.44;5095877;28;20177;-62
2021/12/09 03:11:36;;;;;;;11.77;4.50;;;;;;;1.80;89.00;100185.22;5095842;28;20052;-63
2021/12/09 03:14:04;;;;;;;12.48;4.40;;;;;;;1.81;88.55;100186.09;5095662;28;20097;-62
2021/12/09 03:16:31;;;;;;;11.23;4.50;;;;;;;1.79;88.56;100198.16;5095893;28;20078;-63
2021/12/09 03:19:00;;;;;;;11.40;4.72;;;;;;;1.77;88.85;100203.34;5095063;28;20381;-62
2021/12/09 03:21:26;;;;;;;11.32;4.47;;;;;;;1.78;88.84;100204.22;5095653;28;20024;-62
2021/12/09 03:23:53;;;;;;;13.30;5.05;;;;;;;1.76;89.09;100201.56;5095524;28;20032;-62
2021/12/09 03:26:25;;;;;;;11.73;4.55;;;;;;;1.77;89.05;100210.25;5095582;28;20036;-62
2021/12/09 03:28:51;;;;;;;;;;;;;;;1.78;88.88;100207.69;5095999;28;20039;-62
2021/12/09 03:31:16;;;;;;;11.85;4.13;;;;;;;1.80;88.52;100216.47;5095465;28;19953;-62
2021/12/09 03:33:41;;;;;;;8.70;3.72;;;;;;;1.80;88.41;100215.56;5095354;28;20095;-62
2021/12/09 03:36:07;;;;;;;14.23;5.05;;;;;;;1.80;88.63;100220.78;5095448;28;20035;-62
2021/12/09 03:38:33;;;;;;;15.18;4.32;;;;;;;1.77;88.76;100220.69;5095220;28;20027;-62
2021/12/09 03:40:59;;;;;;;11.82;3.90;;;;;;;1.74;88.66;100218.84;5095315;28;20066;-62
2021/12/09 03:43:25;;;;;;;9.88;3.95;;;;;;;1.74;88.79;100211.91;5095372;28;20055;-62
2021/12/09 03:45:55;;;;;;;11.82;4.43;;;;;;;1.79;88.88;100213.78;5094987;28;20058;-63
2021/12/09 03:48:22;;;;;;;10.15;4.35;;;;;;;1.81;88.25;100213.03;5095285;28;20085;-62
2021/12/09 03:50:47;;;;;;;14.77;5.30;;;;;;;1.79;88.63;100217.28;5095143;28;20062;-62
2021/12/09 03:53:13;;;;;;;11.50;4.10;;;;;;;1.80;88.48;100223.38;5095355;28;20063;-62
2021/12/09 03:55:39;;;;;;;10.65;4.30;;;;;;;1.77;88.30;100228.50;5094982;28;20055;-63
2021/12/09 03:58:05;;;;;;;12.40;4.15;;;;;;;1.77;87.99;100236.31;5094959;28;20055;-62
2021/12/09 04:00:31;;;;;;;10.85;3.95;;;;;;;1.75;88.41;100231.91;5094691;28;20055;-63
2021/12/09 04:02:57;;;;;;;7.63;3.85;;;;;;;1.73;88.46;100225.78;5094829;28;20376;-62
2021/12/09 04:05:22;;;;;;;8.55;3.58;;;;;;;1.73;87.92;100224.88;5076675;28;20058;-62
2021/12/09 04:07:48;;;;;;;15.32;4.03;;;;;;;1.72;88.08;100224.00;5076568;28;20055;-62
2021/12/09 04:10:13;;;;;;;10.60;4.07;;;;;;;1.71;88.52;100219.63;5094940;28;20027;-62
2021/12/09 04:12:39;;;;;;;9.60;3.70;;;;;;;1.69;88.51;100216.06;5076472;28;20023;-62
2021/12/09 04:15:06;;;;;;;9.25;4.15;;;;;;;1.68;88.20;100219.53;5094498;28;20024;-62
2021/12/09 04:17:32;;;;;;;10.35;3.95;;;;;;;1.68;88.56;100208.22;5094369;28;20043;-62
2021/12/09 04:19:57;;;;;;;10.88;3.70;;;;;;;1.68;88.50;100216.03;5094463;28;20104;-62
2021/12/09 04:22:23;;;;;;;15.88;4.25;;;;;;;1.65;88.50;100215.91;5094737;28;20025;-62
2021/12/09 04:24:51;;;;;;;10.07;3.75;;;;;;;1.63;88.53;100228.88;5094567;28;20466;-63
2021/12/09 04:27:17;;;;;;;11.93;3.92;;;;;;;1.63;88.43;100233.22;5094245;28;20048;-62
2021/12/09 04:29:43;;;;;;;10.60;3.45;;;;;;;1.61;88.96;100240.94;5094253;28;20028;-62
2021/12/09 04:32:08;;;;;;;14.57;4.28;;;;;;;1.64;88.48;100242.78;5093974;28;20027;-63
2021/12/09 04:34:34;;;;;;;5.63;3.17;;;;;;;1.64;88.80;100238.47;5094182;28;20024;-62
2021/12/09 04:37:01;;;;;;;9.82;3.20;;;;;;;1.62;88.57;100236.63;5094038;28;20445;-62
2021/12/09 04:39:27;;;;;;;13.85;3.90;;;;;;;1.61;88.82;100246.16;5094302;28;20051;-62
2021/12/09 04:41:54;;;;;;;9.45;3.30;;;;;;;1.61;88.63;100238.34;5094106;28;20055;-62
2021/12/09 04:44:19;;;;;;;9.65;3.47;;;;;;;1.60;88.79;100236.56;5094019;28;20028;-62
2021/12/09 04:46:45;;;;;;;9.05;3.42;;;;;;;1.62;88.63;100234.03;5093893;28;20020;-62
2021/12/09 04:49:10;;;;;;;13.18;3.60;;;;;;;1.60;88.90;100233.97;5093904;28;20423;-62
2021/12/09 04:51:36;;;;;;;9.95;3.55;;;;;;;1.62;89.04;100241.84;5093849;28;20020;-62
2021/12/09 04:54:03;;;;;;;6.70;3.10;;;;;;;1.60;88.50;100239.19;5094119;28;20089;-62
2021/12/09 04:56:29;;;;;;;8.85;3.40;;;;;;;1.60;88.47;100236.56;5093934;28;20051;-62
2021/12/09 04:58:54;;;;;;;11.25;3.58;;;;;;;1.59;88.69;100237.41;5093991;28;20070;-62
2021/12/09 05:01:20;;;;;;;10.95;3.67;;;;;;;1.62;88.27;100244.44;5093782;28;20028;-62
2021/12/09 05:03:48;;;;;;;12.02;3.53;;;;;;;1.59;88.42;100229.59;5093374;28;20027;-63
2021/12/09 05:06:13;;;;;;;11.27;3.65;;;;;;;1.57;88.55;100241.66;5093560;28;20386;-62
2021/12/09 05:08:44;;;;;;;9.82;3.90;;;;;;;1.59;88.75;100231.31;5093662;28;20024;-62
2021/12/09 05:11:33;;;;;;;11.60;3.58;;;;;;;1.55;88.56;100237.25;5093700;28;20456;-62
2021/12/09 05:13:58;;;;;;;12.93;3.95;;;;;;;1.56;88.91;100239.00;5093244;28;20036;-62
2021/12/09 05:16:25;;;;;;;10.00;3.60;;;;;;;1.53;89.12;100242.38;5093403;28;20024;-62
2021/12/09 05:18:57;;;;;;;10.98;3.70;;;;;;;1.53;89.16;100247.59;5093523;28;20039;-62
2021/12/09 05:21:23;;;;;;;11.65;3.60;;;;;;;1.53;88.82;100246.69;5093511;28;20028;-62
2021/12/09 05:23:48;;;;;;;9.82;3.63;;;;;;;1.55;88.80;100253.75;5093780;28;20024;-62
2021/12/09 05:26:15;;;;;;;10.20;4.05;;;;;;;1.54;89.27;100254.56;5093282;28;20119;-62
2021/12/09 05:28:40;;;;;;;9.98;3.95;;;;;;;1.52;88.58;100258.84;5093245;28;20070;-64
2021/12/09 05:33:51;;;;;;;8.98;3.47;;;;;;;1.49;88.96;100257.00;5093541;28;20082;-62
2021/12/09 05:36:18;;;;;;;9.52;4.00;;;;;;;1.47;88.81;100258.66;5093342;28;20096;-62
2021/12/09 05:38:43;;;;;;;11.88;3.70;;;;;;;1.47;88.98;100250.84;5093318;28;20043;-62
2021/12/09 05:41:09;;;;;;;9.80;3.85;;;;;;;1.44;89.02;100248.13;5093241;28;20028;-63
2021/12/09 05:43:36;;;;;;;10.65;3.67;;;;;;;1.45;89.62;100251.63;5092403;28;20047;-63
2021/12/09 05:46:03;;;;;;;10.02;3.97;;;;;;;1.45;89.00;100255.09;5093378;28;20024;-62
2021/12/09 05:48:30;;;;;;;15.07;4.50;;;;;;;1.47;89.49;100260.38;5093058;28;20028;-62
2021/12/09 05:50:56;;;;;;;9.57;3.92;;;;;;;1.46;89.28;100271.63;5093179;28;20024;-62
2021/12/09 05:53:21;;;;;;;7.82;3.25;;;;;;;1.45;89.24;100268.13;5093093;28;20443;-62
2021/12/09 05:55:47;;;;;;;12.30;3.88;;;;;;;1.44;89.70;100268.97;5093128;28;20096;-62
2021/12/09 05:58:15;;;;;;;11.52;3.80;;;;;;;1.43;89.20;100279.31;5092946;28;20039;-63
2021/12/09 06:00:42;;;;;;;10.77;3.85;;;;;;;1.44;89.17;100275.88;5093017;28;20450;-62
2021/12/09 06:03:07;;;;;;;14.05;3.80;;;;;;;1.43;89.47;100275.00;5092881;28;20036;-62
2021/12/09 06:05:34;;;;;;;12.43;4.40;;;;;;;1.42;89.56;100282.75;5093095;28;20041;-63
2021/12/09 06:08:00;;;;;;;12.20;3.78;;;;;;;1.41;89.73;100274.06;5092926;28;20028;-62
2021/12/09 06:10:25;;;;;;;9.73;3.90;;;;;;;1.40;89.26;100274.00;5092931;28;20096;-62
2021/12/09 06:12:50;;;;;;;11.90;4.40;;;;;;;1.39;89.86;100273.09;5092693;28;20107;-62
2021/12/09 06:15:16;;;;;;;11.25;4.20;;;;;;;1.39;89.42;100272.22;5092805;28;20028;-62
2021/12/09 06:17:41;;;;;;;11.75;4.05;;;;;;;1.40;89.20;100266.19;5093035;28;20063;-62
2021/12/09 06:20:07;;;;;;;10.68;4.32;;;;;;;1.37;89.63;100268.66;5092867;28;20030;-62
2021/12/09 06:22:33;;;;;;;9.77;4.22;;;;;;;1.35;90.18;100281.63;5093008;28;20028;-62
2021/12/09 06:24:58;;;;;;;17.90;3.92;;;;;;;1.38;89.79;100276.53;5093137;28;20115;-62
2021/12/09 06:27:25;;;;;;;14.90;4.32;;;;;;;1.35;89.25;100266.00;5092580;28;20044;-62
2021/12/09 06:29:50;;;;;;;11.75;4.47;;;;;;;1.33;89.63;100269.38;5092621;28;20040;-63
2021/12/09 06:32:15;;;;;;;13.80;4.43;;;;;;;1.33;89.57;100269.38;5092971;28;20108;-62
2021/12/09 06:34:41;;;;;;;14.40;4.40;;;;;;;1.34;89.33;100269.44;5092754;28;20439;-62
2021/12/09 06:37:07;;;;;;;9.80;3.92;;;;;;;1.34;90.06;100277.25;5092842;28;20362;-62
2021/12/09 06:39:33;;;;;;;9.07;3.83;;;;;;;1.31;89.36;100268.44;5092694;28;20035;-62
2021/12/09 06:41:58;;;;;;;9.82;4.38;;;;;;;1.33;89.54;100262.47;5092617;28;20020;-62
2021/12/09 06:44:23;;;;;;;10.43;4.18;;;;;;;1.34;89.42;100281.56;5092339;28;20499;-62
2021/12/09 06:46:55;;;;;;;11.77;5.07;;;;;;;1.32;89.54;100289.31;5092763;28;20067;-62
2021/12/09 06:49:22;;;;;;;10.55;3.90;;;;;;;1.31;90.29;100284.94;5092797;28;20035;-62
2021/12/09 06:51:48;;;;;;;10.93;3.80;;;;;;;1.30;90.06;100284.88;5092495;28;20111;-62
2021/12/09 06:54:14;;;;;;;9.32;4.18;;;;;;;1.32;89.98;100296.22;5092616;28;20095;-62
2021/12/09 06:56:39;;;;;;;13.07;4.68;;;;;;;1.29;90.44;100297.03;5096165;28;20024;-62
2021/12/09 06:59:05;;;;;;;11.98;4.40;;;;;;;1.31;90.12;100291.84;5095936;28;20099;-62
2021/12/09 07:01:30;;;;;;;15.82;4.85;;;;;;;1.29;89.86;100299.63;5096024;28;20020;-62
2021/12/09 07:03:56;;;;;;;10.98;4.22;;;;;;;1.32;89.81;100294.50;5096002;28;20472;-62
2021/12/09 07:06:21;;;;;;;10.15;4.18;;;;;;;1.33;90.00;100292.78;5096246;28;20036;-62
2021/12/09 07:08:48;;;;;;;13.60;4.28;;;;;;;1.30;89.97;100314.41;5095947;28;20469;-62
2021/12/09 07:11:17;;;;;;;12.40;3.83;;;;;;;1.31;90.04;100308.34;5095877;28;20035;-62
2021/12/09 07:13:44;;;;;;;14.65;4.40;;;;;;;1.34;89.82;100297.19;5095671;28;20036;-62
2021/12/09 07:16:10;;;;;;;9.80;4.10;;;;;;;1.33;90.26;100292.78;5095974;28;20024;-62
2021/12/09 07:18:36;;;;;;;12.20;3.95;;;;;;;1.34;90.13;100297.19;5095699;28;20040;-62
2021/12/09 07:21:02;;;;;;;9.23;4.85;;;;;;;1.33;90.27;100290.19;5095599;28;20082;-62
2021/12/09 07:23:27;;;;;;;7.20;3.83;;;;;;;1.34;90.33;100292.88;5095734;28;20028;-62
2021/12/09 07:25:52;;;;;;;11.68;4.15;;;;;;;1.33;90.25;100285.91;5095486;28;20024;-62
2021/12/09 07:28:18;;;;;;;12.13;3.90;;;;;;;1.33;90.41;100291.09;5095446;28;20544;-62
2021/12/09 07:30:44;;;;;;;11.90;3.90;;;;;;;1.34;90.54;100292.00;5095482;28;20024;-62
2021/12/09 07:33:10;;;;;;;11.02;4.20;;;;;;;1.32;90.61;100297.13;5095594;28;20089;-62
2021/12/09 07:35:35;;;;;;;8.93;3.70;;;;;;;1.34;89.81;100297.19;5095643;28;20461;-62
2021/12/09 07:38:03;;;;;;;12.25;4.10;;;;;;;1.36;90.27;100300.72;5095444;28;20028;-62
2021/12/09 07:40:29;;;;;;;12.65;3.97;;;;;;;1.36;90.25;100305.94;5095346;28;20028;-62
2021/12/09 07:42:55;;;;;;;17.08;4.82;;;;;;;1.35;90.79;100307.66;5095231;28;20016;-63
2021/12/09 07:45:24;;;;;;;11.75;4.20;;;;;;;1.38;90.53;100312.09;5095011;28;20034;-63
2021/12/09 07:47:50;;;;;;;10.25;4.65;;;;;;;1.38;90.26;100310.38;5095201;28;20067;-62
2021/12/09 07:50:19;;;;;;;10.88;4.28;;;;;;;1.43;90.49;100315.75;5095127;28;20028;-62
2021/12/09 07:52:48;;;;;;;12.55;4.22;;;;;;;1.43;90.00;100310.56;5095023;28;20028;-63
2021/12/09 07:55:14;;;;;;;11.20;4.38;;;;;;;1.43;90.29;100303.63;5095006;28;20024;-62
2021/12/09 07:57:40;;;;;;;15.68;4.65;;;;;;;1.42;90.52;100307.06;5094990;28;20016;-62
2021/12/09 08:00:11;;;;;;;9.32;4.15;;;;;;;1.45;90.07;100307.16;5094776;28;20085;-62
2021/12/09 08:02:36;;;;;;;11.32;4.32;;;;;;;1.48;90.55;100312.50;5094909;28;20090;-62
2021/12/09 08:05:03;;;;;;;10.52;4.32;;;;;;;1.54;90.07;100313.56;5094449;28;20533;-62
2021/12/09 08:07:28;;;;;;;7.57;3.60;;;;;;;1.60;89.89;100313.81;5094646;28;20076;-62
2021/12/09 08:09:54;;;;;;;10.50;4.05;;;;;;;1.67;89.81;100315.78;5094769;28;20103;-62
2021/12/09 08:12:19;;;;;;;13.88;4.10;;;;;;;1.70;89.64;100329.81;5094731;28;20027;-62
2021/12/09 08:14:44;;;;;;;9.68;3.97;;;;;;;1.71;89.16;100333.31;5094551;28;20024;-63
2021/12/09 08:17:33;;;;;;;11.32;4.75;;;;;;;1.70;89.56;100327.22;5094597;28;20024;-62
2021/12/09 08:19:59;;;;;;;13.63;4.40;;;;;;;1.70;89.59;100327.22;5094198;28;20036;-62
2021/12/09 08:22:25;;;;;;;14.98;4.93;;;;;;;1.72;89.46;100329.91;5094526;28;20485;-62
2021/12/09 08:24:51;;;;;;;14.98;4.65;;;;;;;1.74;89.58;100333.44;5094593;28;20050;-62
2021/12/09 08:27:17;;;;;;;11.68;4.57;;;;;;;1.75;89.46;100327.41;5094238;28;20048;-63
2021/12/09 08:29:42;;;;;;;12.73;4.82;;;;;;;1.78;89.39;100331.84;5094355;28;20021;-63
2021/12/09 08:32:07;;;;;;;9.65;4.57;;;;;;;1.85;89.68;100332.13;5094275;28;20489;-63
2021/12/09 08:34:33;;;;;;;12.80;4.70;;;;;;;1.88;89.65;100329.63;5094426;28;20032;-63
2021/12/09 08:37:05;;;;;;;13.43;4.65;;;;;;;1.94;89.72;100323.78;5094264;28;20028;-63
2021/12/09 08:39:30;;;;;;;20.23;4.75;;;;;;;1.98;89.37;100333.47;5076016;28;20024;-62
2021/12/09 08:41:56;;;;;;;10.02;4.10;;;;;;;2.07;89.14;100332.94;5093950;28;20020;-63
2021/12/09 08:44:22;;;;;;;10.63;5.00;;;;;;;2.09;89.57;100331.25;5094227;28;20043;-63
2021/12/09 08:46:47;;;;;;;12.13;4.60;;;;;;;2.14;88.87;100335.81;5094052;28;20020;-63
2021/12/09 08:49:13;;;;;;;13.80;5.18;;;;;;;2.15;89.09;100336.69;5093928;28;20024;-63
2021/12/09 08:51:39;;;;;;;15.13;5.03;;;;;;;2.16;88.53;100331.53;5093954;28;20067;-63
2021/12/09 08:54:05;;;;;;;8.65;4.78;;;;;;;2.16;88.91;100335.88;5093871;28;20024;-63
2021/12/09 08:56:31;;;;;;;19.88;5.38;;;;;;;2.19;88.77;100331.66;5093842;28;20059;-64
2021/12/09 08:58:56;;;;;;;15.60;4.95;;;;;;;2.21;88.65;100334.31;5093658;28;20051;-65
2021/12/09 09:01:22;;;;;;;13.07;4.65;;;;;;;2.25;88.91;100334.47;5093749;28;20024;-64
2021/12/09 09:03:49;;;;;;;16.00;4.63;;;;;;;2.25;88.81;100339.69;5093777;28;20028;-64
2021/12/09 09:06:15;;;;;;;11.20;4.90;;;;;;;2.29;88.50;100337.19;5093694;28;20481;-64
2021/12/09 09:08:40;;;;;;;13.13;4.80;;;;;;;2.32;88.62;100329.50;5093619;28;20115;-64
2021/12/09 09:11:06;;;;;;;12.98;5.13;;;;;;;2.34;88.82;100339.13;5093682;28;20028;-64
2021/12/09 09:13:31;;;;;;;11.48;5.32;;;;;;;2.36;88.73;100334.88;5093439;28;20392;-64
2021/12/09 09:15:57;;;;;;;14.23;5.35;;;;;;;2.38;88.68;100332.31;5093506;28;20020;-63
2021/12/09 09:18:22;;;;;;;12.40;4.68;;;;;;;2.38;88.80;100343.63;5092746;28;20016;-64
2021/12/09 09:20:49;;;;;;;8.95;4.95;;;;;;;2.43;88.78;100349.00;5093548;28;20020;-64
2021/12/09 09:23:18;;;;;;;16.83;4.82;;;;;;;2.44;88.46;100343.84;5093623;28;20020;-64
2021/12/09 09:25:43;;;;;;;14.27;5.18;;;;;;;2.45;88.83;100348.22;5093143;28;20020;-64
2021/12/09 09:28:09;;;;;;;10.68;4.82;;;;;;;2.49;88.60;100354.44;5093272;28;20046;-65
2021/12/09 09:30:40;;;;;;;10.73;4.80;;;;;;;2.51;88.96;100348.41;5093233;28;20030;-64
2021/12/09 09:33:11;;;;;;;9.05;4.40;;;;;;;2.55;88.47;100345.94;5093352;28;20032;-64
2021/12/09 09:35:38;;;;;;;12.15;4.95;;;;;;;2.55;88.61;100346.81;5093350;28;20554;-64
2021/12/09 09:38:04;;;;;;;14.85;5.13;;;;;;;2.59;88.20;100361.72;5093286;28;20380;-64
2021/12/09 09:40:39;;;;;;;13.13;5.63;;;;;;;2.60;88.44;100354.78;5093380;28;20077;-64
2021/12/09 09:43:14;;;;;;;10.18;4.95;;;;;;;2.64;88.50;100361.88;5092988;28;20067;-65
2021/12/09 09:45:40;;;;;;;13.07;5.35;;;;;;;2.65;88.64;100351.50;5093206;28;20024;-64
2021/12/09 09:48:13;;;;;;;14.68;5.30;;;;;;;2.66;88.39;100345.47;5093101;28;20028;-64
2021/12/09 09:50:40;;;;;;;13.55;5.78;;;;;;;2.69;88.80;100355.09;5093221;28;20027;-64
2021/12/09 09:53:09;;;;;;;15.75;5.63;;;;;;;2.74;88.67;100361.38;5093139;28;20028;-64
2021/12/09 09:55:35;;;;;;;15.88;5.93;;;;;;;2.75;88.97;100360.56;5092968;28;20058;-64
2021/12/09 09:58:00;;;;;;;16.08;6.05;;;;;;;2.78;88.56;100363.25;5093137;28;20024;-64
2021/12/09 10:00:26;;;;;;;13.15;6.15;;;;;;;2.81;88.35;100360.75;5093184;28;20031;-63
2021/12/09 10:02:54;;;;;;;13.13;5.75;;;;;;;2.83;88.59;100374.75;5093058;28;20024;-63
2021/12/09 10:05:33;;;;;;;14.88;6.43;;;;;;;2.84;87.92;100355.63;5093018;28;20089;-64
2021/12/09 10:07:58;;;;;;;14.45;6.15;;;;;;;2.86;87.95;100366.13;5092945;28;20028;-63
2021/12/09 10:10:30;;;;;;;14.40;6.07;;;;;;;2.86;88.26;100366.13;5092865;28;20042;-64
2021/12/09 10:13:08;;;;;;;14.98;6.70;;;;;;;2.88;88.47;100356.63;5093275;28;20028;-63
2021/12/09 10:15:39;;;;;;;14.32;6.35;;;;;;;2.91;87.99;100354.09;5092988;28;20433;-63
2021/12/09 10:18:05;;;;;;;17.23;6.75;;;;;;;2.94;88.26;100333.34;5092877;28;20032;-63
2021/12/09 10:20:53;;;;;;;12.48;6.22;;;;;;;2.98;88.45;100343.94;5092876;28;20031;-63
2021/12/09 10:23:23;;;;;;;16.23;7.28;;;;;;;3.03;88.55;100332.75;5092858;28;20031;-63
2021/12/09 10:26:27;;;;;;;15.38;6.53;;;;;;;3.06;88.25;100328.53;5092661;28;20024;-64
2021/12/09 10:29:06;;;;;;;12.48;6.43;;;;;;;3.11;88.63;100328.69;5093871;28;20072;-63
2021/12/09 10:31:54;;;;;;;12.82;6.10;;;;;;;3.14;88.75;100334.88;5096626;28;20036;-63
2021/12/09 10:34:40;;;;;;;11.57;6.00;;;;;;;3.18;88.05;100326.31;5096809;28;20028;-63
2021/12/09 10:37:11;;;;;;;19.73;6.05;;;;;;;3.24;88.40;100328.22;5096495;28;20035;-63
2021/12/09 10:39:41;;;;;;;10.82;5.85;;;;;;;3.30;87.56;100324.91;5096261;28;20032;-64
2021/12/09 10:42:17;;;;;;;12.23;6.30;;;;;;;3.32;87.87;100318.03;5096484;28;20028;-63
2021/12/09 10:44:48;;;;;;;14.55;6.18;;;;;;;3.36;87.85;100333.84;5096341;28;20089;-63
2021/12/09 10:47:24;;;;;;;12.87;6.03;;;;;;;3.35;86.71;100328.59;5096304;28;20028;-63
2021/12/09 10:53:01;;;;;;;13.02;5.95;;;;;;;3.37;87.76;100337.34;5014171;28;20034;-63
2021/12/09 10:55:37;;;;;;;15.25;6.95;;;;;;;3.35;87.89;100336.41;5014155;28;20136;-63
2021/12/09 10:58:09;;;;;;;14.13;6.45;;;;;;;3.34;87.64;100334.63;5014292;28;20040;-63
2021/12/09 11:00:52;;;;;;;13.75;6.35;;;;;;;3.37;87.12;100332.09;4997439;28;20544;-63
2021/12/09 11:03:24;;;;;;;13.38;7.03;;;;;;;3.36;88.09;100332.97;5013947;28;20068;-64
2021/12/09 11:06:00;;;;;;;13.15;6.35;;;;;;;3.37;87.84;100335.59;5014024;28;20065;-63
2021/12/09 11:08:44;;;;;;;12.18;6.20;;;;;;;3.39;88.76;100326.13;5013900;28;20038;-63
2021/12/09 11:11:28;;;;;;;15.30;6.63;;;;;;;3.41;88.35;100329.66;5013844;28;20052;-64
2021/12/09 11:13:55;;;;;;;17.10;7.13;;;;;;;3.45;88.05;100330.63;5013883;28;20034;-63
2021/12/09 11:16:33;;;;;;;19.88;8.15;;;;;;;3.47;88.09;100324.63;5013867;28;20037;-63
2021/12/09 11:19:10;;;;;;;10.93;6.60;;;;;;;3.51;87.54;100318.66;5013705;28;20091;-63
2021/12/09 11:21:41;;;;;;;17.13;6.75;;;;;;;3.58;87.63;100321.44;5013698;28;20034;-64
2021/12/09 11:24:11;;;;;;;14.45;6.65;;;;;;;3.60;87.46;100315.44;5013637;28;20030;-63
2021/12/09 11:27:01;;;;;;;11.05;6.72;;;;;;;3.61;87.00;100316.31;5013573;28;20046;-63
2021/12/09 11:29:31;;;;;;;11.20;6.63;;;;;;;3.64;87.21;100308.56;5087440;28;20051;-63
2021/12/09 11:34:47;;;;;;;14.20;7.70;;;;;;;3.65;87.04;100311.22;5095531;28;20031;-63
2021/12/09 11:39:54;;;;;;;14.02;6.90;;;;;;;3.66;87.53;100307.78;5095112;28;20032;-64